createdAt,value
2022-10-05T00:00:59.100Z,6.17
2022-10-05T00:03:39.159Z,6.20
2022-10-05T00:06:06.823Z,6.28
2022-10-05T00:08:35.276Z,6.39
2022-10-05T00:11:02.327Z,6.43
2022-10-05T00:13:31.003Z,6.40
2022-10-05T00:16:19.784Z,6.42
2022-10-05T00:18:53.136Z,6.44
2022-10-05T00:21:26.189Z,6.40
2022-10-05T00:23:55.824Z,6.37
2022-10-05T00:26:27.696Z,6.36
2022-10-05T00:28:54.935Z,6.37
2022-10-05T00:31:26.682Z,6.33
2022-10-05T00:33:55.135Z,6.28
2022-10-05T00:36:22.135Z,6.30
2022-10-05T00:38:49.437Z,6.29
2022-10-05T00:41:16.327Z,6.26
2022-10-05T00:44:05.691Z,6.22
2022-10-05T00:46:58.530Z,6.23
2022-10-05T00:49:40.435Z,6.20
2022-10-05T00:52:20.448Z,6.21
2022-10-05T00:54:50.862Z,6.17
2022-10-05T00:57:29.275Z,6.16
2022-10-05T01:00:18.974Z,6.10
2022-10-05T01:02:54.890Z,6.12
2022-10-05T01:05:43.097Z,6.10
2022-10-05T01:08:27.623Z,6.11
2022-10-05T01:11:22.112Z,6.12
2022-10-05T01:14:07.090Z,6.12
2022-10-05T01:16:45.547Z,6.15
2022-10-05T01:19:50.127Z,6.18
2022-10-05T01:22:38.756Z,6.22
2022-10-05T01:25:30.818Z,6.23
2022-10-05T01:28:03.555Z,6.24
2022-10-05T01:30:41.239Z,6.19
2022-10-05T01:33:24.339Z,6.18
2022-10-05T01:36:06.290Z,6.18
2022-10-05T01:38:45.191Z,6.19
2022-10-05T01:41:29.007Z,6.19
2022-10-05T01:44:06.014Z,6.15
2022-10-05T01:47:03.323Z,6.14
2022-10-05T01:49:59.143Z,6.13
2022-10-05T01:52:48.257Z,6.12
2022-10-05T01:55:33.320Z,6.08
2022-10-05T01:58:15.531Z,6.07
2022-10-05T02:01:06.694Z,6.06
2022-10-05T02:03:42.990Z,6.09
2022-10-05T02:06:32.987Z,6.11
2022-10-05T02:09:18.506Z,6.09
2022-10-05T02:11:51.517Z,6.04
2022-10-05T02:14:26.893Z,6.03
2022-10-05T02:16:55.796Z,6.03
2022-10-05T02:19:34.261Z,6.00
2022-10-05T02:22:08.164Z,5.99
2022-10-05T02:24:41.819Z,5.97
2022-10-05T02:27:10.732Z,5.98
2022-10-05T02:29:42.771Z,5.96
2022-10-05T02:32:21.743Z,5.95
2022-10-05T02:34:48.734Z,5.91
2022-10-05T02:37:22.249Z,5.91
2022-10-05T02:40:21.547Z,5.91
2022-10-05T02:43:06.918Z,5.86
2022-10-05T02:45:55.680Z,5.91
2022-10-05T02:49:00.751Z,5.89
2022-10-05T02:51:50.996Z,5.90
2022-10-05T02:54:51.326Z,5.91
2022-10-05T02:57:24.357Z,5.92
2022-10-05T02:59:55.461Z,5.95
2022-10-05T03:02:31.578Z,5.92
2022-10-05T03:05:13.512Z,5.92
2022-10-05T03:07:40.489Z,5.91
2022-10-05T03:10:26.888Z,5.94
2022-10-05T03:13:02.427Z,5.97
2022-10-05T03:15:50.324Z,5.97
2022-10-05T03:18:35.548Z,6.02
2022-10-05T03:21:37.607Z,6.02
2022-10-05T03:24:10.310Z,6.01
2022-10-05T03:27:00.704Z,5.98
2022-10-05T03:29:33.878Z,5.98
2022-10-05T03:32:14.880Z,5.96
2022-10-05T03:34:57.051Z,5.91
2022-10-05T03:37:34.576Z,5.86
2022-10-05T03:40:26.300Z,5.86
2022-10-05T03:43:17.917Z,5.81
2022-10-05T03:46:07.994Z,5.80
2022-10-05T03:48:48.649Z,5.79
2022-10-05T03:51:24.188Z,5.79
2022-10-05T03:53:59.973Z,5.78
2022-10-05T03:56:46.183Z,5.77
2022-10-05T03:59:42.069Z,5.79
2022-10-05T04:02:26.415Z,5.80
2022-10-05T04:05:02.214Z,5.79
2022-10-05T04:07:36.329Z,5.75
2022-10-05T04:10:10.727Z,5.72
2022-10-05T04:12:42.528Z,5.72
2022-10-05T04:15:23.039Z,5.70
2022-10-05T04:17:58.329Z,5.68
2022-10-05T04:20:56.186Z,5.66
2022-10-05T04:23:39.753Z,5.66
2022-10-05T04:26:12.390Z,5.68
2022-10-05T04:28:56.642Z,5.74
2022-10-05T04:32:00.904Z,5.80
2022-10-05T04:34:44.561Z,5.82
2022-10-05T04:37:36.071Z,5.84
2022-10-05T04:40:21.351Z,5.87
2022-10-05T04:43:03.953Z,5.92
2022-10-05T04:45:52.384Z,5.94
2022-10-05T04:48:46.046Z,5.94
2022-10-05T04:51:25.545Z,6.02
2022-10-05T04:53:57.167Z,6.14
2022-10-05T04:56:38.627Z,6.39
2022-10-05T04:59:30.428Z,6.69
2022-10-05T05:02:11.457Z,7.07
2022-10-05T05:05:14.606Z,7.31
2022-10-05T05:07:59.117Z,7.61
2022-10-05T05:10:53.885Z,7.87
2022-10-05T05:13:49.132Z,8.10
2022-10-05T05:16:37.556Z,8.11
2022-10-05T05:19:50.867Z,7.94
2022-10-05T05:22:23.740Z,8.06
2022-10-05T05:25:27.199Z,8.07
2022-10-05T05:28:01.297Z,7.97
2022-10-05T05:30:51.123Z,7.78
2022-10-05T05:33:40.827Z,7.66
2022-10-05T05:36:07.925Z,7.57
2022-10-05T05:39:06.134Z,7.42
2022-10-05T05:41:50.148Z,7.34
2022-10-05T05:44:37.817Z,7.22
2022-10-05T05:47:12.614Z,7.13
2022-10-05T05:50:10.211Z,7.13
2022-10-05T05:52:45.517Z,7.20
2022-10-05T05:55:15.002Z,7.54
2022-10-05T05:57:47.900Z,8.12
2022-10-05T06:00:14.839Z,8.72
2022-10-05T06:02:50.915Z,9.47
2022-10-05T06:05:45.171Z,10.26
2022-10-05T06:08:17.911Z,10.85
2022-10-05T06:10:54.026Z,11.17
2022-10-05T06:13:35.827Z,11.22
2022-10-05T06:16:11.690Z,11.27
2022-10-05T06:18:43.392Z,11.50
2022-10-05T06:21:35.815Z,11.87
2022-10-05T06:24:10.083Z,12.04
2022-10-05T06:27:08.287Z,12.38
2022-10-05T06:29:40.761Z,12.89
2022-10-05T06:32:52.495Z,12.76
2022-10-05T06:35:35.205Z,12.17
2022-10-05T06:38:23.598Z,11.66
2022-10-05T06:41:05.612Z,11.29
2022-10-05T06:44:01.701Z,11.05
2022-10-05T06:46:36.373Z,11.45
2022-10-05T06:49:06.373Z,11.69
2022-10-05T06:51:46.776Z,12.13
2022-10-05T06:54:36.472Z,12.96
2022-10-05T06:57:06.133Z,13.79
2022-10-05T07:00:01.029Z,14.72
2022-10-05T07:02:49.173Z,15.35
2022-10-05T07:05:31.274Z,15.66
2022-10-05T07:08:01.171Z,16.00
2022-10-05T07:10:31.080Z,16.17
2022-10-05T07:13:06.898Z,16.29
2022-10-05T07:15:37.063Z,16.52
2022-10-05T07:18:32.158Z,16.63
2022-10-05T07:21:13.362Z,16.75
2022-10-05T07:24:16.929Z,17.21
2022-10-05T07:26:50.077Z,17.43
2022-10-05T07:29:57.227Z,17.59
2022-10-05T07:32:33.766Z,17.79
2022-10-05T07:35:44.416Z,17.80
2022-10-05T07:38:24.236Z,17.89
2022-10-05T07:40:59.098Z,17.85
2022-10-05T07:44:00.419Z,17.74
2022-10-05T07:46:30.550Z,17.88
2022-10-05T07:49:16.792Z,17.81
2022-10-05T07:51:51.036Z,17.33
2022-10-05T07:54:33.241Z,17.27
2022-10-05T07:57:24.216Z,16.94
2022-10-05T08:00:03.845Z,16.14
2022-10-05T08:03:00.479Z,15.89
2022-10-05T08:05:33.242Z,15.87
2022-10-05T08:08:08.736Z,16.01
2022-10-05T08:10:49.295Z,16.20
2022-10-05T08:13:27.932Z,16.24
2022-10-05T08:16:01.425Z,16.17
2022-10-05T08:18:51.719Z,15.98
2022-10-05T08:21:25.831Z,16.14
2022-10-05T08:23:58.217Z,16.48
2022-10-05T08:26:49.746Z,17.10
2022-10-05T08:29:22.001Z,17.62
2022-10-05T08:31:53.682Z,17.95
2022-10-05T08:34:29.787Z,18.08
2022-10-05T08:37:05.856Z,18.33
2022-10-05T08:39:51.810Z,18.35
2022-10-05T08:42:24.761Z,18.23
2022-10-05T08:44:55.148Z,18.05
2022-10-05T08:47:48.155Z,18.15
2022-10-05T08:50:39.416Z,18.66
2022-10-05T08:53:21.752Z,18.90
2022-10-05T08:55:51.522Z,18.89
2022-10-05T08:58:43.362Z,19.31
2022-10-05T09:01:35.705Z,19.73
2022-10-05T09:04:24.965Z,19.81
2022-10-05T09:07:00.931Z,19.76
2022-10-05T09:09:40.139Z,20.00
2022-10-05T09:12:24.960Z,19.88
2022-10-05T09:15:27.188Z,19.81
2022-10-05T09:18:22.398Z,19.16
2022-10-05T09:21:08.633Z,18.88
2022-10-05T09:23:44.155Z,18.91
2022-10-05T09:26:26.129Z,19.21
2022-10-05T09:29:26.872Z,19.36
2022-10-05T09:32:11.766Z,19.90
2022-10-05T09:35:03.297Z,20.60
2022-10-05T09:37:51.332Z,20.90
2022-10-05T09:41:16.736Z,20.22
2022-10-05T09:43:43.693Z,19.62
2022-10-05T09:46:34.850Z,19.24
2022-10-05T09:49:20.275Z,19.00
2022-10-05T09:52:25.698Z,18.52
2022-10-05T09:55:31.276Z,18.89
2022-10-05T09:58:28.474Z,19.54
2022-10-05T10:01:32.662Z,19.65
2022-10-05T10:04:14.374Z,19.50
2022-10-05T10:06:53.166Z,19.68
2022-10-05T10:09:52.953Z,19.99
2022-10-05T10:12:44.558Z,20.13
2022-10-05T10:15:33.513Z,19.84
2022-10-05T10:18:29.984Z,19.58
2022-10-05T10:21:21.502Z,19.77
2022-10-05T10:24:00.207Z,19.86
2022-10-05T10:26:48.765Z,19.77
2022-10-05T10:29:21.839Z,19.61
2022-10-05T10:32:06.900Z,19.45
2022-10-05T10:35:19.542Z,19.12
2022-10-05T10:38:05.067Z,19.04
2022-10-05T10:41:09.977Z,18.87
2022-10-05T10:44:14.254Z,18.56
2022-10-05T10:46:48.489Z,18.33
2022-10-05T10:49:37.013Z,18.50
2022-10-05T10:52:33.304Z,18.90
2022-10-05T10:55:37.846Z,19.19
2022-10-05T10:58:23.694Z,18.97
2022-10-05T11:00:58.011Z,18.60
2022-10-05T11:03:35.103Z,18.21
2022-10-05T11:06:14.091Z,18.19
2022-10-05T11:09:04.026Z,18.06
2022-10-05T11:11:51.374Z,18.35
2022-10-05T11:14:54.277Z,18.42
2022-10-05T11:17:55.030Z,18.64
2022-10-05T11:21:04.620Z,18.81
2022-10-05T11:23:59.109Z,18.79
2022-10-05T11:26:38.458Z,18.68
2022-10-05T11:29:11.147Z,18.32
2022-10-05T11:31:57.664Z,18.09
2022-10-05T11:35:01.593Z,17.81
2022-10-05T11:37:47.200Z,17.63
2022-10-05T11:40:20.959Z,17.60
2022-10-05T11:43:14.092Z,17.64
2022-10-05T11:46:07.891Z,17.65
2022-10-05T11:48:42.162Z,17.66
2022-10-05T11:51:12.200Z,17.45
2022-10-05T11:53:44.496Z,17.40
2022-10-05T11:56:17.172Z,17.39
2022-10-05T11:59:00.404Z,17.45
2022-10-05T12:01:46.838Z,17.52
2022-10-05T12:04:21.495Z,17.56
2022-10-05T12:06:55.075Z,17.45
2022-10-05T12:10:14.350Z,17.36
2022-10-05T12:13:07.353Z,17.25
2022-10-05T12:15:52.357Z,17.20
2022-10-05T12:18:45.659Z,17.15
2022-10-05T12:21:18.512Z,17.19
2022-10-05T12:24:13.140Z,17.18
2022-10-05T12:27:01.027Z,17.37
2022-10-05T12:29:33.667Z,17.49
2022-10-05T12:32:23.958Z,17.57
2022-10-05T12:35:11.620Z,17.48
2022-10-05T12:37:52.154Z,17.39
2022-10-05T12:40:27.579Z,17.35
2022-10-05T12:43:04.930Z,17.36
2022-10-05T12:45:46.191Z,17.44
2022-10-05T12:48:33.173Z,17.38
2022-10-05T12:51:08.685Z,17.38
2022-10-05T12:53:51.015Z,17.42
2022-10-05T12:56:36.415Z,17.52
2022-10-05T12:59:21.291Z,17.73
2022-10-05T13:01:56.113Z,17.95
2022-10-05T13:04:35.195Z,18.39
2022-10-05T13:07:27.626Z,18.70
2022-10-05T13:10:19.056Z,18.89
2022-10-05T13:13:23.709Z,18.69
2022-10-05T13:16:05.505Z,18.60
2022-10-05T13:19:09.799Z,18.34
2022-10-05T13:21:45.951Z,18.25
2022-10-05T13:24:52.865Z,18.08
2022-10-05T13:27:27.790Z,17.92
2022-10-05T13:30:02.482Z,17.90
2022-10-05T13:32:36.885Z,17.86
2022-10-05T13:35:15.477Z,17.78
2022-10-05T13:38:16.946Z,17.65
2022-10-05T13:41:00.969Z,17.41
2022-10-05T13:43:54.055Z,17.24
2022-10-05T13:46:56.009Z,17.04
2022-10-05T13:49:39.067Z,16.94
2022-10-05T13:52:08.885Z,16.85
2022-10-05T13:54:53.709Z,16.71
2022-10-05T13:57:51.692Z,16.55
2022-10-05T14:00:26.827Z,16.41
2022-10-05T14:02:56.958Z,16.22
2022-10-05T14:05:27.147Z,16.09
2022-10-05T14:07:58.495Z,15.98
2022-10-05T14:10:44.560Z,15.87
2022-10-05T14:13:33.867Z,15.75
2022-10-05T14:16:13.116Z,15.66
2022-10-05T14:18:53.295Z,15.52
2022-10-05T14:21:23.357Z,15.41
2022-10-05T14:23:51.782Z,15.36
2022-10-05T14:26:18.574Z,15.34
2022-10-05T14:29:01.570Z,15.32
2022-10-05T14:31:37.556Z,15.31
2022-10-05T14:34:39.373Z,15.24
2022-10-05T14:37:25.244Z,15.17
2022-10-05T14:39:57.791Z,15.08
2022-10-05T14:42:30.245Z,14.99
2022-10-05T14:45:21.721Z,14.94
2022-10-05T14:47:53.062Z,14.82
2022-10-05T14:50:29.803Z,14.78
2022-10-05T14:52:59.864Z,14.71
2022-10-05T14:56:08.584Z,14.59
2022-10-05T14:59:06.022Z,14.54
2022-10-05T15:01:36.664Z,14.52
2022-10-05T15:04:30.594Z,14.46
2022-10-05T15:07:11.333Z,14.40
2022-10-05T15:09:58.712Z,14.34
2022-10-05T15:12:32.629Z,14.31
2022-10-05T15:15:06.565Z,14.24
2022-10-05T15:17:47.570Z,14.19
2022-10-05T15:20:43.831Z,14.15
2022-10-05T15:23:30.799Z,14.07
2022-10-05T15:26:15.331Z,13.97
2022-10-05T15:28:55.237Z,13.90
2022-10-05T15:31:42.929Z,13.82
2022-10-05T15:34:31.386Z,13.79
2022-10-05T15:37:07.968Z,13.75
2022-10-05T15:39:37.688Z,13.68
2022-10-05T15:42:14.705Z,13.68
2022-10-05T15:45:03.256Z,13.60
2022-10-05T15:48:00.005Z,13.52
2022-10-05T15:51:01.194Z,13.47
2022-10-05T15:53:39.782Z,13.42
2022-10-05T15:56:19.135Z,13.38
2022-10-05T15:59:01.921Z,13.34
2022-10-05T16:01:32.008Z,13.33
2022-10-05T16:04:07.793Z,13.30
2022-10-05T16:07:19.641Z,13.28
2022-10-05T16:09:50.064Z,13.27
2022-10-05T16:12:32.401Z,13.21
2022-10-05T16:15:17.654Z,13.17
2022-10-05T16:18:08.198Z,13.12
2022-10-05T16:20:46.951Z,13.08
2022-10-05T16:23:51.628Z,13.03
2022-10-05T16:26:24.637Z,13.02
2022-10-05T16:29:14.438Z,13.00
2022-10-05T16:32:07.709Z,13.00
2022-10-05T16:34:54.250Z,13.00
2022-10-05T16:37:29.794Z,12.95
2022-10-05T16:40:00.338Z,12.93
2022-10-05T16:42:34.827Z,12.98
2022-10-05T16:45:23.350Z,12.95
2022-10-05T16:47:52.706Z,12.92
2022-10-05T16:50:55.231Z,12.94
2022-10-05T16:53:29.233Z,12.94
2022-10-05T16:56:02.328Z,12.94
2022-10-05T16:58:43.870Z,12.95
2022-10-05T17:01:42.115Z,12.95
2022-10-05T17:04:31.931Z,12.94
2022-10-05T17:07:17.629Z,12.89
2022-10-05T17:09:56.806Z,12.85
2022-10-05T17:12:30.182Z,12.81
2022-10-05T17:15:29.235Z,12.78
2022-10-05T17:18:24.924Z,12.76
2022-10-05T17:21:10.791Z,12.71
2022-10-05T17:24:11.746Z,12.68
2022-10-05T17:27:12.344Z,12.66
2022-10-05T17:29:48.282Z,12.63
2022-10-05T17:32:15.770Z,12.63
2022-10-05T17:35:39.809Z,12.58
2022-10-05T17:38:41.750Z,12.61
2022-10-05T17:41:17.497Z,12.61
2022-10-05T17:44:21.387Z,12.59
2022-10-05T17:46:56.139Z,12.60
2022-10-05T17:50:08.227Z,12.59
2022-10-05T17:52:56.759Z,12.62
2022-10-05T17:55:32.803Z,12.65
2022-10-05T17:58:26.013Z,12.64
2022-10-05T18:00:59.877Z,12.68
2022-10-05T18:03:34.545Z,12.72
2022-10-05T18:06:26.167Z,12.67
2022-10-05T18:09:17.457Z,12.62
2022-10-05T18:11:48.085Z,12.64
2022-10-05T18:14:19.685Z,12.62
2022-10-05T18:17:10.521Z,12.60
2022-10-05T18:19:39.542Z,12.66
2022-10-05T18:22:15.686Z,12.67
2022-10-05T18:24:55.836Z,12.68
2022-10-05T18:27:34.594Z,12.75
2022-10-05T18:30:14.038Z,12.77
2022-10-05T18:32:40.663Z,12.72
2022-10-05T18:35:24.595Z,12.73
2022-10-05T18:38:04.582Z,12.74
2022-10-05T18:40:34.748Z,12.72
2022-10-05T18:43:30.809Z,12.67
2022-10-05T18:46:25.164Z,12.69
2022-10-05T18:49:19.776Z,12.76
2022-10-05T18:51:54.244Z,12.74
2022-10-05T18:54:26.840Z,12.73
2022-10-05T18:56:54.220Z,12.76
2022-10-05T18:59:33.581Z,12.78
2022-10-05T19:02:24.555Z,12.75
2022-10-05T19:05:03.690Z,12.75
2022-10-05T19:07:52.957Z,12.74
2022-10-05T19:11:05.681Z,12.73
2022-10-05T19:13:37.878Z,12.78
2022-10-05T19:16:26.244Z,12.77
2022-10-05T19:19:29.520Z,12.80
2022-10-05T19:22:15.599Z,12.76
2022-10-05T19:24:54.025Z,12.74
2022-10-05T19:28:07.058Z,12.76
2022-10-05T19:30:58.976Z,12.79
2022-10-05T19:34:02.787Z,12.87
2022-10-05T19:36:54.662Z,12.86
2022-10-05T19:39:39.149Z,12.87
2022-10-05T19:42:21.329Z,12.84
2022-10-05T19:45:12.643Z,12.79
2022-10-05T19:48:07.559Z,12.78
2022-10-05T19:50:37.828Z,12.81
2022-10-05T19:53:07.398Z,12.81
2022-10-05T19:55:35.979Z,12.73
2022-10-05T19:58:17.867Z,12.70
2022-10-05T20:01:08.483Z,12.72
2022-10-05T20:03:38.040Z,12.68
2022-10-05T20:06:07.950Z,12.64
2022-10-05T20:08:43.817Z,12.66
2022-10-05T20:11:15.289Z,12.69
2022-10-05T20:14:10.237Z,12.66
2022-10-05T20:16:55.721Z,12.65
2022-10-05T20:19:54.798Z,12.64
2022-10-05T20:22:27.566Z,12.62
2022-10-05T20:25:04.065Z,12.65
2022-10-05T20:27:35.600Z,12.63
2022-10-05T20:30:02.402Z,12.69
2022-10-05T20:32:30.777Z,12.74
2022-10-05T20:34:57.897Z,12.72
2022-10-05T20:37:25.493Z,12.67
2022-10-05T20:39:52.537Z,12.68
2022-10-05T20:42:20.324Z,12.73
2022-10-05T20:44:50.791Z,12.75
2022-10-05T20:47:19.872Z,12.78
2022-10-05T20:49:46.861Z,12.80
2022-10-05T20:52:15.158Z,12.82
2022-10-05T20:54:42.418Z,12.80
2022-10-05T20:57:09.904Z,12.81
2022-10-05T20:59:37.337Z,12.81
2022-10-05T21:02:04.961Z,12.85
2022-10-05T21:04:40.811Z,12.87
2022-10-05T21:07:08.395Z,12.86
2022-10-05T21:09:38.376Z,12.90
2022-10-05T21:12:05.488Z,12.87
2022-10-05T21:14:34.380Z,12.87
2022-10-05T21:17:02.352Z,12.86
2022-10-05T21:19:29.830Z,12.88
2022-10-05T21:21:59.161Z,12.84
2022-10-05T21:24:26.377Z,12.85
2022-10-05T21:26:56.809Z,12.88
2022-10-05T21:29:23.775Z,12.92
2022-10-05T21:31:51.190Z,12.95
2022-10-05T21:34:18.044Z,12.96
2022-10-05T21:36:44.795Z,12.97
2022-10-05T21:39:11.745Z,12.98
2022-10-05T21:41:38.635Z,13.01
2022-10-05T21:44:06.371Z,12.96
2022-10-05T21:46:35.977Z,12.90
2022-10-05T21:49:03.335Z,12.87
2022-10-05T21:51:30.428Z,12.83
2022-10-05T21:54:02.754Z,12.78
2022-10-05T21:56:34.867Z,12.81
2022-10-05T21:59:09.125Z,12.83
2022-10-05T22:01:36.102Z,12.78
2022-10-05T22:04:04.947Z,12.73
2022-10-05T22:06:32.463Z,12.69
2022-10-05T22:08:59.739Z,12.68
2022-10-05T22:11:26.877Z,12.69
2022-10-05T22:13:53.802Z,12.72
2022-10-05T22:16:24.037Z,12.72
2022-10-05T22:18:51.837Z,12.69
2022-10-05T22:21:20.695Z,12.66
2022-10-05T22:23:47.804Z,12.63
2022-10-05T22:26:18.262Z,12.61
2022-10-05T22:28:46.845Z,12.58
2022-10-05T22:31:14.401Z,12.54
2022-10-05T22:33:41.395Z,12.54
2022-10-05T22:36:09.667Z,12.57
2022-10-05T22:38:36.919Z,12.58
2022-10-05T22:41:04.095Z,12.64
2022-10-05T22:43:30.870Z,12.61
2022-10-05T22:45:57.675Z,12.60
2022-10-05T22:48:25.037Z,12.65
2022-10-05T22:50:52.079Z,12.68
2022-10-05T22:53:18.918Z,12.72
2022-10-05T22:55:45.919Z,12.73
2022-10-05T22:58:12.742Z,12.77
2022-10-05T23:00:57.572Z,12.79
2022-10-05T23:03:25.330Z,12.85
2022-10-05T23:06:03.846Z,12.86
2022-10-05T23:08:32.391Z,12.90
2022-10-05T23:11:16.806Z,12.95
2022-10-05T23:13:44.548Z,13.00
2022-10-05T23:16:12.376Z,13.02
2022-10-05T23:18:39.634Z,13.03
2022-10-05T23:21:08.547Z,13.05
2022-10-05T23:23:48.873Z,13.05
2022-10-05T23:26:16.567Z,13.14
2022-10-05T23:28:47.299Z,13.12
2022-10-05T23:31:17.392Z,13.13
2022-10-05T23:33:44.522Z,13.19
2022-10-05T23:36:17.476Z,13.16
2022-10-05T23:38:44.814Z,13.19
2022-10-05T23:41:13.241Z,13.25
2022-10-05T23:43:40.059Z,13.23
2022-10-05T23:46:07.684Z,13.24
2022-10-05T23:48:38.302Z,13.22
2022-10-05T23:51:06.744Z,13.22
2022-10-05T23:53:33.946Z,13.21
2022-10-05T23:56:01.023Z,13.19
2022-10-05T23:58:28.461Z,13.24
